createdAt,value
2023-03-19T00:02:17.136Z,10.76
2023-03-19T00:04:46.338Z,10.83
2023-03-19T00:07:14.145Z,10.78
2023-03-19T00:09:40.877Z,10.78
2023-03-19T00:12:08.644Z,10.73
2023-03-19T00:14:35.723Z,10.57
2023-03-19T00:17:02.332Z,10.54
2023-03-19T00:19:29.406Z,10.51
2023-03-19T00:21:56.468Z,10.52
2023-03-19T00:24:23.165Z,10.54
2023-03-19T00:26:49.765Z,10.52
2023-03-19T00:29:16.598Z,10.61
2023-03-19T00:31:43.337Z,10.66
2023-03-19T00:34:10.190Z,10.69
2023-03-19T00:36:37.554Z,10.58
2023-03-19T00:39:05.155Z,10.62
2023-03-19T00:41:32.528Z,10.58
2023-03-19T00:43:59.491Z,10.58
2023-03-19T00:46:26.666Z,10.50
2023-03-19T00:48:55.649Z,10.53
2023-03-19T00:51:23.667Z,10.46
2023-03-19T00:53:51.561Z,10.49
2023-03-19T00:56:18.857Z,10.71
2023-03-19T00:58:45.941Z,10.66
2023-03-19T01:01:14.826Z,10.52
2023-03-19T01:03:41.745Z,10.60
2023-03-19T01:06:08.331Z,10.48
2023-03-19T01:08:35.493Z,10.50
2023-03-19T01:11:11.293Z,10.58
2023-03-19T01:13:38.765Z,10.50
2023-03-19T01:16:06.048Z,10.52
2023-03-19T01:18:33.025Z,10.68
2023-03-19T01:20:59.597Z,10.87
2023-03-19T01:23:26.768Z,10.90
2023-03-19T01:25:53.459Z,10.81
2023-03-19T01:28:20.092Z,10.68
2023-03-19T01:33:20.115Z,10.57
2023-03-19T01:35:50.923Z,10.60
2023-03-19T01:38:18.133Z,10.50
2023-03-19T01:40:47.593Z,10.63
2023-03-19T01:43:23.059Z,10.67
2023-03-19T01:45:53.114Z,10.65
2023-03-19T01:48:33.490Z,10.64
2023-03-19T01:51:01.470Z,10.59
2023-03-19T01:53:31.612Z,10.64
2023-03-19T01:56:05.039Z,10.59
2023-03-19T01:58:32.492Z,10.50
2023-03-19T02:00:59.083Z,10.52
2023-03-19T02:03:27.339Z,10.48
2023-03-19T02:05:56.640Z,10.53
2023-03-19T02:08:24.471Z,10.55
2023-03-19T02:10:52.628Z,10.59
2023-03-19T02:13:19.446Z,10.52
2023-03-19T02:15:46.517Z,10.46
2023-03-19T02:18:13.544Z,10.44
2023-03-19T02:20:49.500Z,10.39
2023-03-19T02:23:26.917Z,10.42
2023-03-19T02:26:02.362Z,10.37
2023-03-19T02:28:30.809Z,10.45
2023-03-19T02:30:57.458Z,10.15
2023-03-19T02:33:24.094Z,10.15
2023-03-19T02:35:52.550Z,10.20
2023-03-19T02:38:22.545Z,10.23
2023-03-19T02:40:58.244Z,10.16
2023-03-19T02:43:24.866Z,10.15
2023-03-19T02:45:51.960Z,10.16
2023-03-19T02:48:18.661Z,10.02
2023-03-19T02:50:45.891Z,10.07
2023-03-19T02:53:12.803Z,10.21
2023-03-19T02:55:39.501Z,10.10
2023-03-19T02:58:06.135Z,10.13
2023-03-19T03:00:33.161Z,10.33
2023-03-19T03:03:01.069Z,10.25
2023-03-19T03:05:28.096Z,10.08
2023-03-19T03:07:54.689Z,10.31
2023-03-19T03:10:21.299Z,10.38
2023-03-19T03:12:47.932Z,10.39
2023-03-19T03:15:14.866Z,10.48
2023-03-19T03:17:45.106Z,10.60
2023-03-19T03:20:14.029Z,10.58
2023-03-19T03:22:41.574Z,10.50
2023-03-19T03:25:09.970Z,10.24
2023-03-19T03:27:37.948Z,10.21
2023-03-19T03:30:06.733Z,10.05
2023-03-19T03:32:33.317Z,10.04
2023-03-19T03:34:59.925Z,9.88
2023-03-19T03:37:26.700Z,10.02
2023-03-19T03:39:53.514Z,9.85
2023-03-19T03:42:20.191Z,10.06
2023-03-19T03:44:47.200Z,10.16
2023-03-19T03:47:14.077Z,10.29
2023-03-19T03:49:40.680Z,10.37
2023-03-19T03:52:08.578Z,10.33
2023-03-19T03:54:35.583Z,10.15
2023-03-19T03:57:03.676Z,10.16
2023-03-19T03:59:30.474Z,10.04
2023-03-19T04:01:57.039Z,9.99
2023-03-19T04:04:23.660Z,10.02
2023-03-19T04:09:23.569Z,9.93
2023-03-19T04:11:51.538Z,10.02
2023-03-19T04:14:18.302Z,10.05
2023-03-19T04:19:16.245Z,9.99
2023-03-19T04:21:42.863Z,10.00
2023-03-19T04:24:10.668Z,10.25
2023-03-19T04:26:38.054Z,10.20
2023-03-19T04:29:06.187Z,10.26
2023-03-19T04:31:32.811Z,10.22
2023-03-19T04:33:59.395Z,10.13
2023-03-19T04:36:26.382Z,10.04
2023-03-19T04:38:53.713Z,10.13
2023-03-19T04:41:20.622Z,10.06
2023-03-19T04:43:47.202Z,10.01
2023-03-19T04:46:13.799Z,10.01
2023-03-19T04:48:40.546Z,10.09
2023-03-19T04:51:09.482Z,10.17
2023-03-19T04:53:38.076Z,10.15
2023-03-19T04:56:05.212Z,10.15
2023-03-19T04:58:31.806Z,10.22
2023-03-19T05:00:58.800Z,10.23
2023-03-19T05:05:58.430Z,10.32
2023-03-19T05:08:25.096Z,10.37
2023-03-19T05:10:51.942Z,10.43
2023-03-19T05:13:20.988Z,10.51
2023-03-19T05:15:48.626Z,10.55
2023-03-19T05:18:15.557Z,10.53
2023-03-19T05:20:42.885Z,10.51
2023-03-19T05:23:09.592Z,10.53
2023-03-19T05:25:36.229Z,10.53
2023-03-19T05:28:03.948Z,10.54
2023-03-19T05:30:31.890Z,10.45
2023-03-19T05:33:00.011Z,10.39
2023-03-19T05:35:27.969Z,10.45
2023-03-19T05:37:54.619Z,10.31
2023-03-19T05:40:22.416Z,10.15
2023-03-19T05:42:49.243Z,10.30
2023-03-19T05:45:17.414Z,10.21
2023-03-19T05:50:19.100Z,10.21
2023-03-19T05:52:45.988Z,10.30
2023-03-19T05:55:12.654Z,10.31
2023-03-19T05:57:39.519Z,10.29
2023-03-19T06:00:07.760Z,10.26
2023-03-19T06:02:35.779Z,10.20
2023-03-19T06:05:02.700Z,10.18
2023-03-19T06:07:29.351Z,10.19
2023-03-19T06:09:56.066Z,10.23
2023-03-19T06:12:23.861Z,10.28
2023-03-19T06:14:50.639Z,10.27
2023-03-19T06:17:17.388Z,10.23
2023-03-19T06:19:44.148Z,10.27
2023-03-19T06:22:10.923Z,10.40
2023-03-19T06:24:37.614Z,10.37
2023-03-19T06:27:04.447Z,10.48
2023-03-19T06:29:30.983Z,10.57
2023-03-19T06:31:58.228Z,10.60
2023-03-19T06:34:25.608Z,10.66
2023-03-19T06:36:53.954Z,10.74
2023-03-19T06:39:21.251Z,10.77
2023-03-19T06:41:47.882Z,10.78
2023-03-19T06:44:14.833Z,10.83
2023-03-19T06:46:42.014Z,10.96
2023-03-19T06:49:08.956Z,10.89
2023-03-19T06:51:35.909Z,10.95
2023-03-19T06:54:02.679Z,10.91
2023-03-19T06:56:29.771Z,10.94
2023-03-19T06:58:56.871Z,11.04
2023-03-19T07:01:24.120Z,11.07
2023-03-19T07:06:23.251Z,11.04
2023-03-19T07:08:49.912Z,11.10
2023-03-19T07:13:48.445Z,11.10
2023-03-19T07:16:15.010Z,11.16
2023-03-19T07:18:41.592Z,11.22
2023-03-19T07:21:08.208Z,11.30
2023-03-19T07:23:34.847Z,11.42
2023-03-19T07:26:01.645Z,11.47
2023-03-19T07:28:28.265Z,11.50
2023-03-19T07:30:55.225Z,11.64
2023-03-19T07:33:22.170Z,11.71
2023-03-19T07:35:49.120Z,11.68
2023-03-19T07:38:15.978Z,11.67
2023-03-19T07:40:51.375Z,11.70
2023-03-19T07:43:21.950Z,11.81
2023-03-19T07:45:48.646Z,11.75
2023-03-19T07:48:15.267Z,11.72
2023-03-19T07:50:41.881Z,11.70
2023-03-19T07:53:08.528Z,11.88
2023-03-19T07:55:37.199Z,11.78
2023-03-19T07:58:04.437Z,11.86
2023-03-19T08:00:31.218Z,11.78
2023-03-19T08:02:57.840Z,11.76
2023-03-19T08:05:24.547Z,11.82
2023-03-19T08:07:51.803Z,11.85
2023-03-19T08:10:18.675Z,11.76
2023-03-19T08:12:45.465Z,11.75
2023-03-19T08:15:12.702Z,11.85
2023-03-19T08:17:39.393Z,11.77
2023-03-19T08:20:12.011Z,11.80
2023-03-19T08:22:39.634Z,11.80
2023-03-19T08:25:07.326Z,11.87
2023-03-19T08:27:35.917Z,11.99
2023-03-19T08:30:07.806Z,12.01
2023-03-19T08:32:35.738Z,11.98
2023-03-19T08:35:03.490Z,12.00
2023-03-19T08:37:30.112Z,12.02
2023-03-19T08:39:56.744Z,12.20
2023-03-19T08:42:24.022Z,12.14
2023-03-19T08:44:50.753Z,12.33
2023-03-19T08:47:17.686Z,12.41
2023-03-19T08:49:44.334Z,12.55
2023-03-19T08:52:11.253Z,12.67
2023-03-19T08:54:37.894Z,12.64
2023-03-19T08:57:04.492Z,12.79
2023-03-19T08:59:34.073Z,12.77
2023-03-19T09:02:01.216Z,12.78
2023-03-19T09:04:28.435Z,12.63
2023-03-19T09:06:55.965Z,12.75
2023-03-19T09:09:24.650Z,12.79
2023-03-19T09:11:51.522Z,13.00
2023-03-19T09:14:20.048Z,13.08
2023-03-19T09:16:47.129Z,12.94
2023-03-19T09:19:14.072Z,13.00
2023-03-19T09:24:12.235Z,13.66
2023-03-19T09:26:38.871Z,14.10
2023-03-19T09:29:05.448Z,14.51
2023-03-19T09:31:32.180Z,14.63
2023-03-19T09:33:58.864Z,15.14
2023-03-19T09:36:26.511Z,15.45
2023-03-19T09:38:53.120Z,15.76
2023-03-19T09:41:31.860Z,15.48
2023-03-19T09:43:58.951Z,15.69
2023-03-19T09:46:46.803Z,15.80
2023-03-19T09:49:28.428Z,15.49
2023-03-19T09:52:09.496Z,15.82
2023-03-19T09:54:49.963Z,16.25
2023-03-19T09:57:17.623Z,16.43
2023-03-19T09:59:44.460Z,16.61
2023-03-19T10:02:16.934Z,16.80
2023-03-19T10:05:05.488Z,17.11
2023-03-19T10:07:38.360Z,17.44
2023-03-19T10:10:42.625Z,17.46
2023-03-19T10:13:22.530Z,17.84
2023-03-19T10:15:52.873Z,17.35
2023-03-19T10:18:34.780Z,17.80
2023-03-19T10:21:03.956Z,17.83
2023-03-19T10:23:39.895Z,17.87
2023-03-19T10:26:11.712Z,18.20
2023-03-19T10:28:40.187Z,18.01
2023-03-19T10:31:12.890Z,18.09
2023-03-19T10:33:45.286Z,18.07
2023-03-19T10:38:45.053Z,18.73
2023-03-19T10:41:36.277Z,18.89
2023-03-19T10:44:10.258Z,18.67
2023-03-19T10:46:38.676Z,19.01
2023-03-19T10:49:05.314Z,18.89
2023-03-19T10:51:32.529Z,19.06
2023-03-19T10:54:01.367Z,18.89
2023-03-19T10:56:34.121Z,18.64
2023-03-19T10:59:07.101Z,19.04
2023-03-19T11:01:43.941Z,19.12
2023-03-19T11:04:26.186Z,19.03
2023-03-19T11:06:55.278Z,18.80
2023-03-19T11:09:27.383Z,19.28
2023-03-19T11:11:59.004Z,19.20
2023-03-19T11:14:37.297Z,19.16
2023-03-19T11:17:06.713Z,18.93
2023-03-19T11:22:12.591Z,18.87
2023-03-19T11:24:40.890Z,18.86
2023-03-19T11:27:10.255Z,18.71
2023-03-19T11:29:41.916Z,18.61
2023-03-19T11:32:22.274Z,18.76
2023-03-19T11:35:01.638Z,18.82
2023-03-19T11:37:43.875Z,18.79
2023-03-19T11:40:32.085Z,19.10
2023-03-19T11:43:01.542Z,18.97
2023-03-19T11:46:00.549Z,18.90
2023-03-19T11:48:40.872Z,18.85
2023-03-19T11:51:17.920Z,18.68
2023-03-19T11:54:02.231Z,18.83
2023-03-19T11:56:48.282Z,19.03
2023-03-19T11:59:43.535Z,19.10
2023-03-19T12:02:47.395Z,19.20
2023-03-19T12:08:37.730Z,18.76
2023-03-19T12:11:16.789Z,18.67
2023-03-19T12:14:08.322Z,18.63
2023-03-19T12:16:58.420Z,18.64
2023-03-19T12:19:36.921Z,18.97
2023-03-19T12:22:19.533Z,19.13
2023-03-19T12:25:04.609Z,19.16
2023-03-19T12:27:56.934Z,19.25
2023-03-19T12:30:44.165Z,19.54
2023-03-19T12:33:48.254Z,19.02
2023-03-19T12:39:14.728Z,18.91
2023-03-19T12:41:44.200Z,18.79
2023-03-19T12:44:22.747Z,19.02
2023-03-19T12:46:58.605Z,19.29
2023-03-19T12:49:52.323Z,19.35
2023-03-19T12:52:47.873Z,19.15
2023-03-19T12:55:21.130Z,18.80
2023-03-19T12:57:58.842Z,18.93
2023-03-19T13:00:39.160Z,19.25
2023-03-19T13:03:18.690Z,19.53
2023-03-19T13:05:52.810Z,19.22
2023-03-19T13:11:13.715Z,18.73
2023-03-19T13:13:50.154Z,18.40
2023-03-19T13:16:32.583Z,18.09
2023-03-19T13:19:21.683Z,17.90
2023-03-19T13:21:52.055Z,17.28
2023-03-19T13:24:34.375Z,16.93
2023-03-19T13:27:01.958Z,16.81
2023-03-19T13:29:31.504Z,16.50
2023-03-19T13:32:02.561Z,16.59
2023-03-19T13:34:34.127Z,16.47
2023-03-19T13:37:21.366Z,16.08
2023-03-19T13:39:49.544Z,16.06
2023-03-19T13:42:42.772Z,15.88
2023-03-19T13:45:21.700Z,15.58
2023-03-19T13:47:50.043Z,15.39
2023-03-19T13:50:19.518Z,14.98
2023-03-19T13:52:51.716Z,14.85
2023-03-19T13:55:34.481Z,14.66
2023-03-19T13:58:16.492Z,14.55
2023-03-19T14:00:43.164Z,14.47
2023-03-19T14:03:32.827Z,14.36
2023-03-19T14:08:43.806Z,14.35
2023-03-19T14:11:11.129Z,14.33
2023-03-19T14:13:43.849Z,14.24
2023-03-19T14:16:22.925Z,14.24
2023-03-19T14:18:50.514Z,14.32
2023-03-19T14:21:32.985Z,14.23
2023-03-19T14:27:30.724Z,14.30
2023-03-19T14:30:00.791Z,14.16
2023-03-19T14:32:35.230Z,14.19
2023-03-19T14:35:06.614Z,14.11
2023-03-19T14:37:39.661Z,14.15
2023-03-19T14:40:16.989Z,14.25
2023-03-19T14:43:12.629Z,14.35
2023-03-19T14:45:49.665Z,14.43
2023-03-19T14:48:53.876Z,14.42
2023-03-19T14:51:30.980Z,14.33
2023-03-19T14:54:05.263Z,14.52
2023-03-19T14:56:35.184Z,14.49
2023-03-19T14:59:04.389Z,14.33
2023-03-19T15:01:33.321Z,14.31
2023-03-19T15:04:08.172Z,14.41
2023-03-19T15:06:38.749Z,14.29
2023-03-19T15:09:37.894Z,14.20
2023-03-19T15:12:26.211Z,14.33
2023-03-19T15:15:24.611Z,14.32
2023-03-19T15:18:03.921Z,14.31
2023-03-19T15:20:37.055Z,14.22
2023-03-19T15:23:16.607Z,14.32
2023-03-19T15:26:01.990Z,14.35
2023-03-19T15:28:31.597Z,14.19
2023-03-19T15:31:12.817Z,14.09
2023-03-19T15:33:47.911Z,14.18
2023-03-19T15:36:17.553Z,14.12
2023-03-19T15:39:04.929Z,13.97
2023-03-19T15:41:33.311Z,13.76
2023-03-19T15:44:01.692Z,13.79
2023-03-19T15:46:34.106Z,13.80
2023-03-19T15:49:13.736Z,13.47
2023-03-19T15:51:42.344Z,13.63
2023-03-19T15:54:09.300Z,13.51
2023-03-19T15:56:36.070Z,13.57
2023-03-19T16:01:36.239Z,13.63
2023-03-19T16:04:11.683Z,13.69
2023-03-19T16:06:40.097Z,13.74
2023-03-19T16:09:17.158Z,13.73
2023-03-19T16:11:46.015Z,13.64
2023-03-19T16:14:15.186Z,13.61
2023-03-19T16:16:42.421Z,13.60
2023-03-19T16:22:14.055Z,13.43
2023-03-19T16:24:43.913Z,13.47
2023-03-19T16:27:16.995Z,13.31
2023-03-19T16:29:46.609Z,13.33
2023-03-19T16:34:57.974Z,13.32
2023-03-19T16:37:44.934Z,13.33
2023-03-19T16:40:14.150Z,13.26
2023-03-19T16:42:41.799Z,13.19
2023-03-19T16:45:17.539Z,13.02
2023-03-19T16:47:52.129Z,13.01
2023-03-19T16:50:21.327Z,13.08
2023-03-19T16:52:49.492Z,12.97
2023-03-19T16:55:23.007Z,12.88
2023-03-19T16:57:56.846Z,12.77
2023-03-19T17:00:24.916Z,12.81
2023-03-19T17:02:56.216Z,12.69
2023-03-19T17:05:23.044Z,12.68
2023-03-19T17:07:50.649Z,12.67
2023-03-19T17:12:56.281Z,12.46
2023-03-19T17:15:33.966Z,12.30
2023-03-19T17:18:03.020Z,12.32
2023-03-19T17:20:36.234Z,12.14
2023-03-19T17:23:11.249Z,11.87
2023-03-19T17:25:38.166Z,11.92
2023-03-19T17:28:04.961Z,11.71
2023-03-19T17:30:32.039Z,11.73
2023-03-19T17:32:58.857Z,11.87
2023-03-19T17:35:26.167Z,11.88
2023-03-19T17:37:52.885Z,11.88
2023-03-19T17:40:27.476Z,11.88
2023-03-19T17:42:55.842Z,11.86
2023-03-19T17:45:28.903Z,11.89
2023-03-19T17:47:58.254Z,12.00
2023-03-19T17:50:28.840Z,11.97
2023-03-19T17:52:55.611Z,12.00
2023-03-19T17:55:28.304Z,11.90
2023-03-19T18:00:30.163Z,11.73
2023-03-19T18:02:57.136Z,11.72
2023-03-19T18:05:25.551Z,11.74
2023-03-19T18:07:55.485Z,11.84
2023-03-19T18:10:27.713Z,11.75
2023-03-19T18:12:54.899Z,11.76
2023-03-19T18:15:22.548Z,11.81
2023-03-19T18:17:52.510Z,11.83
2023-03-19T18:20:21.661Z,11.68
2023-03-19T18:22:48.432Z,11.80
2023-03-19T18:25:28.286Z,11.72
2023-03-19T18:27:55.151Z,11.60
2023-03-19T18:30:23.358Z,11.60
2023-03-19T18:32:54.943Z,11.57
2023-03-19T18:35:27.707Z,11.54
2023-03-19T18:37:54.824Z,11.63
2023-03-19T18:40:23.889Z,11.35
2023-03-19T18:42:50.876Z,11.48
2023-03-19T18:45:18.584Z,11.33
2023-03-19T18:50:23.951Z,11.21
2023-03-19T18:52:52.423Z,11.16
2023-03-19T18:55:20.867Z,11.18
2023-03-19T18:57:54.129Z,11.45
2023-03-19T19:00:31.076Z,11.42
2023-03-19T19:02:58.817Z,11.46
2023-03-19T19:05:28.756Z,11.62
2023-03-19T19:08:01.154Z,11.59
2023-03-19T19:10:43.480Z,11.62
2023-03-19T19:13:20.562Z,11.56
2023-03-19T19:15:48.131Z,11.55
2023-03-19T19:18:20.312Z,11.65
2023-03-19T19:23:22.316Z,11.99
2023-03-19T19:25:55.329Z,11.86
2023-03-19T19:28:30.761Z,11.77
2023-03-19T19:30:59.962Z,11.76
2023-03-19T19:33:29.310Z,11.67
2023-03-19T19:35:56.102Z,11.73
2023-03-19T19:38:22.920Z,11.69
2023-03-19T19:40:51.783Z,11.64
2023-03-19T19:43:24.442Z,11.60
2023-03-19T19:45:53.574Z,11.59
2023-03-19T19:48:21.529Z,11.69
2023-03-19T19:50:48.920Z,11.42
2023-03-19T19:53:15.918Z,11.06
2023-03-19T19:55:43.128Z,11.26
2023-03-19T19:58:19.825Z,11.33
2023-03-19T20:01:00.227Z,11.31
2023-03-19T20:03:31.711Z,11.31
2023-03-19T20:05:59.670Z,11.36
2023-03-19T20:08:27.241Z,11.29
2023-03-19T20:10:55.085Z,11.32
2023-03-19T20:15:58.950Z,11.30
2023-03-19T20:18:30.798Z,11.27
2023-03-19T20:20:58.263Z,11.24
2023-03-19T20:23:25.262Z,11.23
2023-03-19T20:25:52.331Z,11.27
2023-03-19T20:28:25.455Z,11.29
2023-03-19T20:30:54.140Z,11.17
2023-03-19T20:33:21.342Z,11.11
2023-03-19T20:35:48.265Z,11.18
2023-03-19T20:38:15.647Z,11.26
2023-03-19T20:40:52.596Z,11.28
2023-03-19T20:43:34.330Z,11.25
2023-03-19T20:46:04.656Z,11.24
2023-03-19T20:48:33.328Z,11.15
2023-03-19T20:51:02.136Z,10.93
2023-03-19T20:53:29.069Z,11.00
2023-03-19T20:55:56.618Z,11.18
2023-03-19T20:58:29.965Z,11.22
2023-03-19T21:00:58.025Z,11.13
2023-03-19T21:03:27.327Z,11.14
2023-03-19T21:06:00.013Z,11.22
2023-03-19T21:08:58.788Z,11.18
2023-03-19T21:11:38.484Z,11.19
2023-03-19T21:14:06.062Z,11.19
2023-03-19T21:16:34.119Z,11.12
2023-03-19T21:19:00.970Z,11.29
2023-03-19T21:21:34.529Z,11.22
2023-03-19T21:24:11.296Z,11.15
2023-03-19T21:26:40.531Z,11.15
2023-03-19T21:29:14.874Z,11.17
2023-03-19T21:31:42.838Z,11.19
2023-03-19T21:34:14.406Z,11.21
2023-03-19T21:36:41.288Z,11.09
2023-03-19T21:39:07.959Z,11.05
2023-03-19T21:41:36.226Z,11.04
2023-03-19T21:44:08.032Z,11.05
2023-03-19T21:46:35.326Z,11.13
2023-03-19T21:49:01.970Z,11.12
2023-03-19T21:54:06.524Z,10.93
2023-03-19T21:59:15.282Z,11.04
2023-03-19T22:01:42.546Z,10.99
2023-03-19T22:04:09.218Z,11.13
2023-03-19T22:06:36.738Z,11.23
2023-03-19T22:09:04.374Z,11.21
2023-03-19T22:11:34.759Z,11.07
2023-03-19T22:16:46.109Z,11.10
2023-03-19T22:19:17.609Z,10.99
2023-03-19T22:21:44.279Z,11.02
2023-03-19T22:24:10.886Z,10.95
2023-03-19T22:26:43.227Z,10.87
2023-03-19T22:29:19.540Z,10.90
2023-03-19T22:31:49.141Z,10.59
2023-03-19T22:34:17.433Z,10.48
2023-03-19T22:36:44.713Z,10.44
2023-03-19T22:39:11.685Z,10.40
2023-03-19T22:41:41.066Z,10.37
2023-03-19T22:44:12.133Z,10.55
2023-03-19T22:46:38.897Z,10.69
2023-03-19T22:49:12.472Z,10.60
2023-03-19T22:51:39.034Z,10.61
2023-03-19T22:54:05.994Z,10.71
2023-03-19T22:56:32.614Z,10.75
2023-03-19T22:58:59.145Z,10.68
2023-03-19T23:01:38.497Z,10.68
2023-03-19T23:04:32.888Z,10.67
2023-03-19T23:07:00.932Z,10.56
2023-03-19T23:12:03.304Z,10.61
2023-03-19T23:14:31.336Z,10.53
2023-03-19T23:17:03.773Z,10.50
2023-03-19T23:19:31.611Z,10.55
2023-03-19T23:21:59.760Z,10.59
2023-03-19T23:24:26.765Z,10.69
2023-03-19T23:26:56.208Z,10.64
2023-03-19T23:29:29.947Z,10.66
2023-03-19T23:31:58.744Z,10.73
2023-03-19T23:34:26.882Z,10.65
2023-03-19T23:36:53.636Z,10.61
2023-03-19T23:41:57.153Z,10.59
2023-03-19T23:44:23.781Z,10.65
2023-03-19T23:46:51.920Z,10.50
2023-03-19T23:49:28.931Z,10.49
2023-03-19T23:51:56.327Z,10.53
2023-03-19T23:57:11.350Z,10.48
2023-03-19T23:59:41.927Z,10.39
